WATT/KOE METAR and TAF weather

Enter ICAO airport designator
Station Type Date Time Source
WATT METAR 2018/12/17 17:00 UTC NOAA

WATT 171700Z AUTO 12001KT 9999 NCD 25/23 Q1009


Station Type Date Time Source
WATT Decoded METAR 2018/12/17 17:00 UTC NOAA

Station name not available
Dec 17, 2018 - 12:00 PM EST / 2018.12.17 1700 UTC
Wind: from the ESE (120 degrees) at 1 MPH (1 KT):0
Visibility: greater than 7 mile(s):0
Temperature: 77 F (25 C)
Dew Point: 73 F (23 C)
Relative Humidity: 88%
Pressure (altimeter): 29.80 in. Hg (1009 hPa)
ob: WATT 171700Z AUTO 12001KT 9999 NCD 25/23 Q1009
cycle: 17

Station Type Date Time Source
WATT TAF 2018/12/17 18:00 UTC NOAA

TAF WATT 171700Z 1718/1818 23004KT 9000 SCT018 PROB40
TEMPO 1806/1809 TS FEW015CB BKN015


Example: see airport list